sensor_id;sensor_type;location;lat;lon;timestamp;temperature;humidity
72646;DHT22;60687;53.876;10.674;2022-07-24T00:10:17;15.10;68.90
72646;DHT22;60687;53.876;10.674;2022-07-24T01:26:20;14.50;71.20
72646;DHT22;60687;53.876;10.674;2022-07-24T01:36:31;14.50;72.10
72646;DHT22;60687;53.876;10.674;2022-07-24T01:46:50;14.40;72.70
72646;DHT22;60687;53.876;10.674;2022-07-24T01:57:16;14.30;72.20
72646;DHT22;60687;53.876;10.674;2022-07-24T02:18:08;14.20;73.10
72646;DHT22;60687;53.876;10.674;2022-07-24T02:28:32;14.20;72.70
72646;DHT22;60687;53.876;10.674;2022-07-24T02:38:42;14.10;72.40
72646;DHT22;60687;53.876;10.674;2022-07-24T02:48:52;14.00;73.60
72646;DHT22;60687;53.876;10.674;2022-07-24T02:59:00;14.00;73.00
72646;DHT22;60687;53.876;10.674;2022-07-24T03:09:04;14.00;73.30
72646;DHT22;60687;53.876;10.674;2022-07-24T03:19:11;13.90;73.60
72646;DHT22;60687;53.876;10.674;2022-07-24T03:29:31;13.80;73.80
72646;DHT22;60687;53.876;10.674;2022-07-24T03:39:49;13.80;75.00
72646;DHT22;60687;53.876;10.674;2022-07-24T03:49:51;13.70;74.30
72646;DHT22;60687;53.876;10.674;2022-07-24T04:00:23;13.70;75.40
72646;DHT22;60687;53.876;10.674;2022-07-24T04:10:25;13.60;75.50
72646;DHT22;60687;53.876;10.674;2022-07-24T04:20:37;13.60;75.40
72646;DHT22;60687;53.876;10.674;2022-07-24T04:31:10;13.60;75.30
72646;DHT22;60687;53.876;10.674;2022-07-24T04:41:13;13.60;76.00
72646;DHT22;60687;53.876;10.674;2022-07-24T04:51:18;13.70;76.60
72646;DHT22;60687;53.876;10.674;2022-07-24T05:01:21;13.80;76.00
72646;DHT22;60687;53.876;10.674;2022-07-24T05:11:24;14.00;75.30
72646;DHT22;60687;53.876;10.674;2022-07-24T05:21:28;14.20;75.20
72646;DHT22;60687;53.876;10.674;2022-07-24T05:31:30;14.40;74.90
72646;DHT22;60687;53.876;10.674;2022-07-24T05:41:34;14.50;74.00
72646;DHT22;60687;53.876;10.674;2022-07-24T05:51:36;14.70;73.70
72646;DHT22;60687;53.876;10.674;2022-07-24T06:01:39;15.00;73.40
72646;DHT22;60687;53.876;10.674;2022-07-24T06:11:41;15.30;72.70
72646;DHT22;60687;53.876;10.674;2022-07-24T06:21:45;15.60;71.80
72646;DHT22;60687;53.876;10.674;2022-07-24T06:31:48;16.00;70.70
72646;DHT22;60687;53.876;10.674;2022-07-24T06:41:54;16.40;69.20
72646;DHT22;60687;53.876;10.674;2022-07-24T06:51:58;16.80;67.20
72646;DHT22;60687;53.876;10.674;2022-07-24T07:02:01;17.10;66.00
72646;DHT22;60687;53.876;10.674;2022-07-24T07:12:04;17.50;65.60
72646;DHT22;60687;53.876;10.674;2022-07-24T07:22:07;17.90;65.10
72646;DHT22;60687;53.876;10.674;2022-07-24T07:32:09;18.30;63.60
72646;DHT22;60687;53.876;10.674;2022-07-24T07:42:14;18.60;63.10
72646;DHT22;60687;53.876;10.674;2022-07-24T07:52:16;18.90;62.80
72646;DHT22;60687;53.876;10.674;2022-07-24T08:02:19;19.20;62.50
72646;DHT22;60687;53.876;10.674;2022-07-24T08:12:21;19.60;62.70
72646;DHT22;60687;53.876;10.674;2022-07-24T08:22:34;20.10;61.20
72646;DHT22;60687;53.876;10.674;2022-07-24T08:32:36;20.40;60.40
72646;DHT22;60687;53.876;10.674;2022-07-24T08:42:41;20.70;59.00
72646;DHT22;60687;53.876;10.674;2022-07-24T08:52:43;20.90;58.30
72646;DHT22;60687;53.876;10.674;2022-07-24T09:02:47;21.30;57.70
72646;DHT22;60687;53.876;10.674;2022-07-24T09:12:49;21.70;56.60
72646;DHT22;60687;53.876;10.674;2022-07-24T09:23:01;22.00;55.80
72646;DHT22;60687;53.876;10.674;2022-07-24T09:33:05;22.30;54.10
72646;DHT22;60687;53.876;10.674;2022-07-24T09:43:17;22.80;54.00
72646;DHT22;60687;53.876;10.674;2022-07-24T09:53:20;23.30;50.90
72646;DHT22;60687;53.876;10.674;2022-07-24T10:03:27;23.60;51.00
72646;DHT22;60687;53.876;10.674;2022-07-24T10:13:37;23.80;49.60
72646;DHT22;60687;53.876;10.674;2022-07-24T13:53:09;27.50;39.60
72646;DHT22;60687;53.876;10.674;2022-07-24T14:04:12;27.40;39.50
72646;DHT22;60687;53.876;10.674;2022-07-24T17:18:01;27.50;41.30
72646;DHT22;60687;53.876;10.674;2022-07-24T17:50:44;27.30;38.80
72646;DHT22;60687;53.876;10.674;2022-07-24T18:01:17;27.10;40.40
72646;DHT22;60687;53.876;10.674;2022-07-24T18:11:27;26.90;41.90
72646;DHT22;60687;53.876;10.674;2022-07-24T18:21:29;26.70;42.70
72646;DHT22;60687;53.876;10.674;2022-07-24T18:31:35;26.50;43.50
72646;DHT22;60687;53.876;10.674;2022-07-24T18:41:37;26.30;45.00
72646;DHT22;60687;53.876;10.674;2022-07-24T18:51:41;26.10;45.60
72646;DHT22;60687;53.876;10.674;2022-07-24T19:01:43;25.90;47.10
72646;DHT22;60687;53.876;10.674;2022-07-24T19:11:47;25.60;48.70
72646;DHT22;60687;53.876;10.674;2022-07-24T19:21:51;25.40;49.60
72646;DHT22;60687;53.876;10.674;2022-07-24T19:32:04;25.20;50.50
72646;DHT22;60687;53.876;10.674;2022-07-24T19:42:06;24.90;51.80
72646;DHT22;60687;53.876;10.674;2022-07-24T19:52:09;24.70;52.00
72646;DHT22;60687;53.876;10.674;2022-07-24T20:02:14;24.50;53.30
72646;DHT22;60687;53.876;10.674;2022-07-24T20:12:17;24.30;54.00
72646;DHT22;60687;53.876;10.674;2022-07-24T20:22:19;24.10;54.50
72646;DHT22;60687;53.876;10.674;2022-07-24T20:32:23;23.90;55.20
72646;DHT22;60687;53.876;10.674;2022-07-24T20:42:25;23.60;55.50
72646;DHT22;60687;53.876;10.674;2022-07-24T20:52:44;23.40;55.40
72646;DHT22;60687;53.876;10.674;2022-07-24T21:02:46;23.30;56.60
72646;DHT22;60687;53.876;10.674;2022-07-24T21:12:49;23.10;57.10
72646;DHT22;60687;53.876;10.674;2022-07-24T21:22:51;23.00;57.10
72646;DHT22;60687;53.876;10.674;2022-07-24T21:33:10;22.90;57.70
72646;DHT22;60687;53.876;10.674;2022-07-24T21:43:12;22.80;58.10
72646;DHT22;60687;53.876;10.674;2022-07-24T21:53:15;22.70;57.80
72646;DHT22;60687;53.876;10.674;2022-07-24T22:03:18;22.60;58.20
72646;DHT22;60687;53.876;10.674;2022-07-24T22:13:44;22.50;58.90
72646;DHT22;60687;53.876;10.674;2022-07-24T22:24:01;22.40;59.30
72646;DHT22;60687;53.876;10.674;2022-07-24T22:34:23;22.20;60.00
72646;DHT22;60687;53.876;10.674;2022-07-24T22:44:35;22.10;60.60
72646;DHT22;60687;53.876;10.674;2022-07-24T22:54:39;22.00;60.40
72646;DHT22;60687;53.876;10.674;2022-07-24T23:04:42;21.90;60.70
72646;DHT22;60687;53.876;10.674;2022-07-24T23:14:46;21.80;61.20
72646;DHT22;60687;53.876;10.674;2022-07-24T23:24:48;21.60;61.90
72646;DHT22;60687;53.876;10.674;2022-07-24T23:34:57;21.50;62.20
72646;DHT22;60687;53.876;10.674;2022-07-24T23:45:01;21.40;62.60
72646;DHT22;60687;53.876;10.674;2022-07-24T23:55:06;21.30;62.70
